Time;durP1;ratioP1;P1;durP2;ratioP2;P2;SDS_P1;SDS_P2;PMS_P1;PMS_P2;Temp;Humidity;BMP_temperature;BMP_pressure;BME280_temperature;BME280_humidity;BME280_pressure;Samples;Min_cycle;Max_cycle;Signal;HPM_P1;HPM_P2
2022/02/17 00:01:48;;;;;;;3.80;0.55;;;13.30;99.90;;;;;;5012521;28;20116;-71
2022/02/17 00:04:14;;;;;;;3.58;1.10;;;13.30;99.90;;;;;;5012196;28;20045;-71
2022/02/17 00:06:40;;;;;;;8.40;0.95;;;13.20;99.90;;;;;;5013029;28;20534;-71
2022/02/17 00:09:06;;;;;;;4.63;1.10;;;13.20;99.90;;;;;;5012595;28;20466;-71
2022/02/17 00:11:33;;;;;;;3.28;0.88;;;13.10;99.90;;;;;;5012034;28;20108;-71
2022/02/17 00:13:59;;;;;;;2.97;0.80;;;13.00;99.90;;;;;;5012102;28;20465;-71
2022/02/17 00:16:25;;;;;;;4.53;0.98;;;12.80;99.90;;;;;;5012139;28;20065;-71
2022/02/17 00:18:51;;;;;;;3.50;0.90;;;12.80;99.90;;;;;;5012004;28;20061;-71
2022/02/17 00:21:19;;;;;;;6.20;0.95;;;12.80;99.90;;;;;;5012148;28;20095;-71
2022/02/17 00:23:45;;;;;;;6.73;1.47;;;12.70;99.90;;;;;;5012060;28;20105;-71
2022/02/17 00:26:11;;;;;;;6.50;1.70;;;12.70;99.90;;;;;;5012269;28;20435;-71
2022/02/17 00:28:37;;;;;;;5.50;1.60;;;12.70;99.90;;;;;;5012203;28;20034;-71
2022/02/17 00:31:05;;;;;;;6.82;1.20;;;12.70;99.90;;;;;;5012473;28;20073;-71
2022/02/17 00:33:32;;;;;;;5.57;1.42;;;12.70;99.90;;;;;;5011928;28;20411;-70
2022/02/17 00:35:58;;;;;;;4.80;1.40;;;12.60;99.90;;;;;;5011951;28;20037;-71
2022/02/17 00:38:24;;;;;;;5.25;1.48;;;12.60;99.90;;;;;;5011672;28;20026;-71
2022/02/17 00:40:50;;;;;;;5.63;1.30;;;12.50;99.90;;;;;;5011060;28;20029;-71
2022/02/17 00:43:16;;;;;;;4.30;1.23;;;12.40;99.90;;;;;;5011224;28;20057;-70
2022/02/17 00:45:43;;;;;;;6.20;1.27;;;12.30;99.90;;;;;;4993697;28;20266;-71
2022/02/17 00:48:09;;;;;;;6.60;1.03;;;12.20;99.90;;;;;;4994489;28;20053;-71
2022/02/17 00:50:39;;;;;;;6.80;1.20;;;12.20;99.90;;;;;;4995077;28;20034;-71
2022/02/17 00:53:05;;;;;;;4.43;0.90;;;12.10;99.90;;;;;;5015139;28;20088;-71
2022/02/17 00:55:31;;;;;;;3.90;0.80;;;12.10;99.90;;;;;;4998103;28;20034;-71
2022/02/17 00:57:57;;;;;;;2.83;0.80;;;12.00;99.90;;;;;;4997108;28;20053;-71
2022/02/17 01:00:24;;;;;;;6.10;1.60;;;12.00;99.90;;;;;;4996916;28;20026;-71
2022/02/17 01:02:56;;;;;;;5.33;1.20;;;11.90;99.90;;;;;;4997591;28;20364;-71
2022/02/17 01:05:22;;;;;;;3.70;0.93;;;11.90;99.90;;;;;;4997890;28;20048;-71
2022/02/17 01:07:48;;;;;;;3.97;1.00;;;11.90;99.90;;;;;;5015222;28;20029;-71
2022/02/17 01:10:14;;;;;;;5.70;1.30;;;11.90;99.90;;;;;;4997346;28;20122;-69
2022/02/17 01:12:40;;;;;;;4.97;1.10;;;11.80;99.90;;;;;;4999210;28;20033;-69
2022/02/17 01:15:06;;;;;;;4.23;0.90;;;11.90;99.90;;;;;;5023163;28;20030;-68
2022/02/17 01:17:33;;;;;;;3.80;1.10;;;11.90;99.90;;;;;;5033914;28;20502;-69
2022/02/17 01:19:58;;;;;;;4.37;0.77;;;11.80;99.90;;;;;;5033880;28;20155;-70
2022/02/17 01:22:25;;;;;;;3.20;1.10;;;11.80;99.90;;;;;;5016030;28;20029;-70
2022/02/17 01:24:57;;;;;;;5.50;0.97;;;11.90;99.90;;;;;;5015935;28;20403;-70
2022/02/17 01:27:23;;;;;;;5.23;1.63;;;11.80;99.90;;;;;;5015915;28;20025;-70
2022/02/17 01:29:49;;;;;;;4.37;1.00;;;11.70;99.90;;;;;;5015749;28;20040;-69
2022/02/17 01:32:19;;;;;;;6.72;1.25;;;11.80;99.90;;;;;;5015916;28;20052;-69
2022/02/17 01:34:45;;;;;;;5.33;1.63;;;11.80;99.90;;;;;;4999512;28;20421;-69
2022/02/17 01:37:11;;;;;;;7.83;1.63;;;11.80;99.90;;;;;;5015827;28;20124;-69
2022/02/17 01:39:38;;;;;;;8.00;1.83;;;11.80;99.90;;;;;;5015604;28;20030;-70
2022/02/17 01:42:08;;;;;;;;;;;11.80;99.90;;;;;;5015960;28;20041;-69
2022/02/17 01:44:34;;;;;;;7.93;1.90;;;11.90;99.90;;;;;;4999206;28;19913;-70
2022/02/17 01:47:13;;;;;;;9.33;2.10;;;11.90;99.90;;;;;;5015688;28;20332;-70
2022/02/17 01:49:41;;;;;;;9.20;1.70;;;11.90;99.90;;;;;;5015470;28;20057;-70
2022/02/17 01:52:08;;;;;;;8.77;3.13;;;11.90;99.90;;;;;;5015485;28;20052;-70
2022/02/17 01:54:35;;;;;;;10.13;1.80;;;12.00;99.90;;;;;;5015264;28;20033;-70
2022/02/17 01:57:17;;;;;;;6.23;1.70;;;12.00;99.90;;;;;;5015421;28;20068;-69
2022/02/17 01:59:51;;;;;;;9.90;2.17;;;11.90;99.90;;;;;;5015250;28;20036;-69
2022/02/17 02:02:26;;;;;;;9.03;2.13;;;11.80;99.90;;;;;;5017250;23;20046;-71
2022/02/17 02:04:58;;;;;;;10.43;2.00;;;11.80;99.90;;;;;;4972858;28;20078;-71
2022/02/17 02:07:25;;;;;;;10.30;2.67;;;11.80;99.90;;;;;;4988806;28;20031;-71
2022/02/17 02:09:54;;;;;;;13.70;2.53;;;11.70;99.90;;;;;;4986021;28;20403;-71
2022/02/17 02:12:28;;;;;;;12.20;2.17;;;11.80;99.90;;;;;;4969237;28;20035;-70
2022/02/17 02:14:56;;;;;;;8.67;2.00;;;11.80;99.90;;;;;;4953434;28;20042;-71
2022/02/17 02:17:30;;;;;;;10.70;1.87;;;11.80;99.90;;;;;;4952888;28;20122;-70
2022/02/17 02:19:59;;;;;;;14.17;2.53;;;11.80;99.90;;;;;;4954737;28;20026;-70
2022/02/17 02:22:29;;;;;;;14.23;2.47;;;11.90;99.90;;;;;;4954796;29;20106;-70
2022/02/17 02:24:59;;;;;;;16.90;2.50;;;11.90;99.90;;;;;;4953188;29;20042;-70
2022/02/17 02:27:26;;;;;;;13.98;2.55;;;11.90;99.90;;;;;;4953167;28;20042;-71
2022/02/17 02:29:53;;;;;;;13.13;2.80;;;12.00;99.90;;;;;;4953267;28;20555;-71
2022/02/17 02:32:25;;;;;;;11.00;1.83;;;12.00;99.90;;;;;;4954814;29;20396;-71
2022/02/17 02:34:51;;;;;;;14.73;2.70;;;11.90;99.90;;;;;;4969289;28;20027;-71
2022/02/17 02:37:17;;;;;;;13.77;2.47;;;12.00;99.90;;;;;;4953313;29;20035;-71
2022/02/17 02:39:44;;;;;;;14.23;2.97;;;12.00;99.90;;;;;;4952908;28;20027;-71
2022/02/17 02:42:10;;;;;;;10.97;2.67;;;11.80;99.90;;;;;;4954522;28;20031;-71
2022/02/17 02:44:36;;;;;;;12.03;2.03;;;11.70;99.90;;;;;;4952992;28;20170;-70
2022/02/17 02:47:04;;;;;;;9.63;2.00;;;11.50;99.90;;;;;;4953083;28;20492;-71
2022/02/17 02:49:37;;;;;;;9.40;1.93;;;11.40;99.90;;;;;;4954004;28;20143;-70
2022/02/17 02:52:04;;;;;;;14.00;2.20;;;11.30;99.90;;;;;;4968993;28;20028;-70
2022/02/17 02:54:38;;;;;;;16.47;2.27;;;11.30;99.90;;;;;;4952637;28;20035;-71
2022/02/17 02:57:04;;;;;;;10.03;2.43;;;11.20;99.90;;;;;;4968940;28;20109;-71
2022/02/17 02:59:31;;;;;;;9.53;2.00;;;11.20;99.90;;;;;;4952726;28;20527;-69
2022/02/17 03:02:00;;;;;;;14.23;1.98;;;11.20;99.90;;;;;;4968817;28;20078;-71
2022/02/17 03:04:27;;;;;;;16.17;2.60;;;11.20;99.90;;;;;;4952614;28;20042;-71
2022/02/17 03:06:52;;;;;;;11.13;2.47;;;11.20;99.90;;;;;;4954046;29;20441;-71
2022/02/17 03:09:21;;;;;;;21.73;3.70;;;11.20;99.90;;;;;;4952512;28;20058;-71
2022/02/17 03:11:47;;;;;;;12.27;2.37;;;11.20;99.90;;;;;;4953995;28;20054;-70
2022/02/17 03:14:14;;;;;;;15.80;3.37;;;11.20;99.90;;;;;;4951822;28;20031;-69
2022/02/17 03:16:41;;;;;;;15.60;2.60;;;11.30;99.90;;;;;;4952570;28;20027;-70
2022/02/17 03:19:07;;;;;;;16.07;2.57;;;11.30;99.90;;;;;;4984540;28;20192;-70
2022/02/17 03:21:34;;;;;;;18.63;2.90;;;11.30;99.90;;;;;;4968549;28;20085;-70
2022/02/17 03:24:02;;;;;;;19.50;2.67;;;11.40;99.90;;;;;;4952219;28;20062;-70
2022/02/17 03:26:38;;;;;;;15.83;2.60;;;11.40;99.90;;;;;;4952360;29;20031;-71
2022/02/17 03:29:04;;;;;;;22.07;3.50;;;11.40;99.90;;;;;;4952348;28;20033;-70
2022/02/17 03:31:31;;;;;;;16.60;3.43;;;11.40;99.90;;;;;;4952344;28;20035;-70
2022/02/17 03:34:03;;;;;;;13.57;2.57;;;11.40;99.90;;;;;;4968060;28;20126;-70
2022/02/17 03:36:31;;;;;;;14.97;2.20;;;11.40;99.90;;;;;;4936519;29;20035;-70
2022/02/17 03:38:58;;;;;;;16.90;3.00;;;11.50;99.90;;;;;;4951922;28;20031;-71
2022/02/17 03:41:35;;;;;;;16.63;2.53;;;11.40;99.90;;;;;;4952054;28;20031;-71
2022/02/17 03:44:09;;;;;;;18.80;3.70;;;11.40;99.90;;;;;;4951828;28;20094;-70
2022/02/17 03:46:41;;;;;;;15.23;3.00;;;11.40;99.90;;;;;;4953302;29;20023;-71
2022/02/17 03:49:07;;;;;;;21.40;3.73;;;11.50;99.90;;;;;;4967965;28;20035;-70
2022/02/17 03:51:34;;;;;;;13.97;2.77;;;11.50;99.90;;;;;;4951963;28;20086;-70
2022/02/17 03:54:00;;;;;;;15.03;3.10;;;11.50;99.90;;;;;;4951668;28;20523;-70
2022/02/17 03:56:27;;;;;;;16.17;2.63;;;11.50;99.90;;;;;;4951770;28;20041;-70
2022/02/17 03:59:12;;;;;;;16.03;3.00;;;11.50;99.90;;;;;;4952951;28;20192;-70
2022/02/17 04:01:42;;;;;;;16.43;2.30;;;11.40;99.90;;;;;;4953002;29;20516;-70
2022/02/17 04:04:12;;;;;;;16.00;2.50;;;11.40;99.90;;;;;;4951478;28;20471;-69
2022/02/17 04:06:39;;;;;;;21.77;3.17;;;11.40;99.90;;;;;;4967706;28;20027;-70
2022/02/17 04:09:07;;;;;;;17.30;2.67;;;11.30;99.90;;;;;;4951498;28;20045;-71
2022/02/17 04:11:34;;;;;;;21.77;3.27;;;11.30;99.90;;;;;;4951595;28;20042;-70
2022/02/17 04:14:02;;;;;;;14.73;2.67;;;11.30;99.90;;;;;;4951382;28;20027;-70
2022/02/17 04:16:41;;;;;;;17.97;3.20;;;11.30;99.90;;;;;;4951568;29;20034;-70
2022/02/17 04:19:18;;;;;;;16.27;2.97;;;11.30;99.90;;;;;;4951273;28;20035;-70
2022/02/17 04:22:04;;;;;;;22.87;3.50;;;11.30;99.90;;;;;;4951545;29;20023;-70
2022/02/17 04:24:44;;;;;;;18.03;3.60;;;11.20;99.90;;;;;;4951225;28;20031;-70
2022/02/17 04:27:13;;;;;;;19.58;3.20;;;11.00;99.90;;;;;;4956366;28;20388;-69
2022/02/17 04:29:42;;;;;;;17.00;3.13;;;10.90;99.90;;;;;;4956603;28;20035;-70
2022/02/17 04:32:11;;;;;;;27.45;4.18;;;10.90;99.90;;;;;;4955221;28;20031;-69
2022/02/17 04:34:39;;;;;;;23.47;3.80;;;10.90;99.90;;;;;;4955090;28;20081;-70
2022/02/17 04:37:09;;;;;;;23.27;4.37;;;10.90;99.90;;;;;;4955292;28;20521;-70
2022/02/17 04:39:35;;;;;;;21.67;4.10;;;11.00;99.90;;;;;;4956408;28;20047;-70
2022/02/17 04:42:18;;;;;;;19.10;3.30;;;11.00;99.90;;;;;;4955236;28;20114;-70
2022/02/17 04:44:49;;;;;;;19.63;4.17;;;11.10;99.90;;;;;;4954942;28;20038;-70
2022/02/17 04:47:17;;;;;;;21.17;4.73;;;11.10;99.90;;;;;;4955123;28;20027;-70
2022/02/17 04:49:43;;;;;;;21.87;3.43;;;11.10;99.90;;;;;;4956234;28;20042;-70
2022/02/17 04:52:09;;;;;;;14.50;3.20;;;11.10;99.90;;;;;;4956353;28;20031;-70
2022/02/17 04:54:37;;;;;;;25.30;3.30;;;11.20;99.90;;;;;;4970841;28;20042;-70
2022/02/17 04:57:07;;;;;;;16.47;3.37;;;11.10;99.90;;;;;;4971347;28;20042;-71
2022/02/17 04:59:37;;;;;;;23.70;4.20;;;11.10;99.90;;;;;;4955017;28;20046;-70
2022/02/17 05:02:04;;;;;;;19.13;3.33;;;11.10;99.90;;;;;;4954787;28;20391;-71
2022/02/17 05:04:33;;;;;;;24.80;3.60;;;11.10;99.90;;;;;;4955802;28;20035;-70
2022/02/17 05:07:09;;;;;;;20.97;4.30;;;11.20;99.90;;;;;;4954602;29;20456;-71
2022/02/17 05:09:36;;;;;;;16.50;3.07;;;11.20;99.90;;;;;;4954509;28;20032;-70
2022/02/17 05:12:02;;;;;;;18.57;3.20;;;11.10;99.90;;;;;;4955879;28;20448;-71
2022/02/17 05:14:31;;;;;;;18.70;3.17;;;11.10;99.90;;;;;;4954519;28;20508;-70
2022/02/17 05:16:57;;;;;;;20.07;4.17;;;11.10;99.90;;;;;;4954616;29;20066;-71
2022/02/17 05:19:26;;;;;;;21.77;3.75;;;11.20;99.90;;;;;;4954441;28;20039;-71
2022/02/17 05:22:11;;;;;;;21.33;4.00;;;11.20;99.90;;;;;;4986621;28;20095;-73
2022/02/17 05:24:55;;;;;;;23.07;3.87;;;11.10;99.90;;;;;;4955601;29;20099;-72
2022/02/17 05:27:21;;;;;;;25.30;5.20;;;11.10;99.90;;;;;;4955779;28;20035;-72
2022/02/17 05:29:55;;;;;;;21.27;3.33;;;11.10;99.90;;;;;;4954528;28;20035;-72
2022/02/17 05:32:24;;;;;;;22.33;4.32;;;11.10;99.90;;;;;;4956074;29;20043;-72
2022/02/17 05:35:09;;;;;;;20.33;3.50;;;11.10;99.90;;;;;;4955573;29;20139;-73
2022/02/17 05:37:54;;;;;;;24.07;4.03;;;11.10;99.90;;;;;;4955011;28;20042;-72
2022/02/17 05:40:37;;;;;;;23.43;4.47;;;11.10;99.90;;;;;;4955214;28;20027;-73
2022/02/17 05:43:04;;;;;;;23.60;4.57;;;11.10;99.90;;;;;;4955310;28;20023;-72
2022/02/17 05:45:30;;;;;;;25.67;4.23;;;11.10;99.90;;;;;;4955440;28;20086;-71
2022/02/17 05:47:56;;;;;;;24.13;4.30;;;11.10;99.90;;;;;;4955365;28;20483;-72
2022/02/17 05:50:23;;;;;;;26.70;4.40;;;11.10;99.90;;;;;;4955339;28;20114;-71
2022/02/17 05:52:53;;;;;;;26.53;4.10;;;11.10;99.90;;;;;;4955083;28;20035;-72
2022/02/17 05:55:22;;;;;;;23.97;4.10;;;11.10;99.90;;;;;;4955274;28;20027;-71
2022/02/17 05:57:51;;;;;;;;;;;11.10;99.90;;;;;;4955400;28;20071;-73
2022/02/17 06:00:23;;;;;;;25.08;4.10;;;11.10;99.90;;;;;;4955369;28;19918;-72
2022/02/17 06:02:50;;;;;;;22.73;4.13;;;11.10;99.90;;;;;;4954853;28;20568;-73
2022/02/17 06:05:18;;;;;;;19.67;3.63;;;11.10;99.90;;;;;;4954764;29;20542;-73
2022/02/17 06:07:47;;;;;;;18.67;3.70;;;11.10;99.90;;;;;;4954893;29;20028;-71
2022/02/17 06:10:16;;;;;;;22.05;3.83;;;11.10;99.90;;;;;;4969802;28;20053;-72
2022/02/17 06:12:44;;;;;;;21.95;4.00;;;11.10;99.90;;;;;;4954883;28;20027;-74
2022/02/17 06:15:13;;;;;;;23.52;4.05;;;11.00;99.90;;;;;;4954619;28;20563;-73
2022/02/17 06:17:42;;;;;;;20.65;4.30;;;11.00;99.90;;;;;;4953452;29;20511;-74
2022/02/17 06:20:09;;;;;;;23.17;3.70;;;11.00;99.90;;;;;;4951013;28;20024;-69
2022/02/17 06:22:50;;;;;;;25.63;3.87;;;11.00;99.90;;;;;;4946059;28;20031;-70
2022/02/17 06:25:17;;;;;;;21.97;3.70;;;11.00;99.90;;;;;;4951543;28;20091;-69
2022/02/17 06:27:43;;;;;;;24.57;4.70;;;11.00;99.90;;;;;;4952997;28;20137;-70
2022/02/17 06:30:11;;;;;;;22.23;4.73;;;10.90;99.90;;;;;;4951609;28;20035;-69
2022/02/17 06:32:45;;;;;;;24.20;3.80;;;10.90;99.90;;;;;;4953324;28;20675;-73
2022/02/17 06:35:11;;;;;;;23.77;4.00;;;10.90;99.90;;;;;;4952609;28;20035;-73
2022/02/17 06:37:37;;;;;;;22.83;4.63;;;10.90;99.90;;;;;;4951077;28;20042;-72
2022/02/17 06:40:05;;;;;;;22.60;3.43;;;10.90;99.90;;;;;;4953219;28;20054;-72
2022/02/17 06:42:31;;;;;;;16.87;2.80;;;10.80;99.90;;;;;;4952762;28;20089;-71
2022/02/17 06:44:57;;;;;;;23.37;4.43;;;10.80;99.90;;;;;;4951462;28;20039;-71
2022/02/17 06:47:23;;;;;;;18.67;3.30;;;10.80;99.90;;;;;;4952683;28;20050;-71
2022/02/17 06:49:48;;;;;;;20.47;3.33;;;10.80;99.90;;;;;;4951823;28;20162;-69
2022/02/17 06:52:14;;;;;;;19.90;3.43;;;10.80;99.90;;;;;;4951418;28;20039;-70
2022/02/17 06:54:42;;;;;;;18.67;3.47;;;10.70;99.90;;;;;;4952977;28;20130;-70
2022/02/17 06:57:08;;;;;;;25.50;4.20;;;10.90;99.90;;;;;;4967779;28;20046;-70
2022/02/17 06:59:33;;;;;;;24.97;3.57;;;11.00;99.90;;;;;;4952590;28;20035;-70
2022/02/17 07:02:00;;;;;;;19.10;3.60;;;11.00;99.90;;;;;;4952684;28;20035;-70
2022/02/17 07:04:26;;;;;;;19.87;3.50;;;10.90;99.90;;;;;;4952277;28;20110;-71
2022/02/17 07:06:52;;;;;;;21.87;3.30;;;10.80;99.90;;;;;;4952806;28;20070;-70
2022/02/17 07:09:18;;;;;;;17.87;3.00;;;10.70;99.90;;;;;;4951975;28;20548;-69
2022/02/17 07:11:44;;;;;;;21.63;4.53;;;10.70;99.90;;;;;;4952501;28;20034;-71
2022/02/17 07:14:11;;;;;;;22.57;3.40;;;10.70;99.90;;;;;;4950918;29;20152;-69
2022/02/17 07:16:37;;;;;;;15.87;3.20;;;10.60;99.90;;;;;;4952639;28;20065;-70
2022/02/17 07:19:03;;;;;;;27.30;3.60;;;10.60;99.90;;;;;;4952323;28;20051;-70
2022/02/17 07:21:28;;;;;;;17.90;3.23;;;10.60;99.90;;;;;;4967076;28;20086;-70
2022/02/17 07:23:55;;;;;;;22.17;3.37;;;10.60;99.90;;;;;;4966498;28;20484;-69
2022/02/17 07:26:21;;;;;;;18.43;3.93;;;10.60;99.90;;;;;;4952296;28;20035;-69
2022/02/17 07:28:47;;;;;;;17.20;2.83;;;10.50;99.90;;;;;;4966879;28;20046;-70
2022/02/17 07:31:13;;;;;;;17.73;3.27;;;10.50;99.90;;;;;;4952320;28;20043;-70
2022/02/17 07:33:39;;;;;;;21.33;3.07;;;10.50;99.90;;;;;;4950565;28;20047;-70
2022/02/17 07:36:07;;;;;;;14.97;2.97;;;10.50;99.90;;;;;;4950882;29;20042;-69
2022/02/17 07:38:34;;;;;;;18.70;3.57;;;10.50;99.90;;;;;;4951632;28;20089;-69
2022/02/17 07:41:00;;;;;;;21.20;5.43;;;10.50;99.90;;;;;;4952280;28;20027;-69
2022/02/17 07:43:26;;;;;;;19.87;3.80;;;10.50;99.90;;;;;;4951820;28;20027;-70
2022/02/17 07:45:52;;;;;;;25.87;5.30;;;10.50;99.90;;;;;;4951121;28;20038;-69
2022/02/17 07:48:18;;;;;;;30.03;4.40;;;10.50;99.90;;;;;;4951901;28;20039;-69
2022/02/17 07:50:44;;;;;;;22.03;3.80;;;10.50;99.90;;;;;;4952142;28;20038;-69
2022/02/17 07:53:09;;;;;;;23.70;4.47;;;10.50;99.90;;;;;;4966189;28;20589;-69
2022/02/17 07:55:35;;;;;;;16.73;3.20;;;10.50;99.90;;;;;;4934503;29;20385;-70
2022/02/17 07:58:05;;;;;;;17.53;2.87;;;10.50;99.90;;;;;;4966702;28;20031;-69
2022/02/17 08:00:31;;;;;;;21.90;4.17;;;10.50;99.90;;;;;;4951698;28;20031;-67
2022/02/17 08:02:57;;;;;;;19.87;3.63;;;10.50;99.90;;;;;;5036623;23;20095;-68
2022/02/17 08:05:23;;;;;;;19.07;3.77;;;10.40;99.90;;;;;;5009380;28;20441;-68
2022/02/17 08:07:49;;;;;;;13.40;2.83;;;10.40;99.90;;;;;;5029494;28;20100;-67
2022/02/17 08:10:15;;;;;;;17.57;3.37;;;10.40;99.90;;;;;;5029330;28;20115;-68
2022/02/17 08:12:42;;;;;;;20.17;3.20;;;10.50;99.90;;;;;;5029469;28;20032;-68
2022/02/17 08:15:08;;;;;;;13.63;3.33;;;10.50;99.90;;;;;;5029076;28;20112;-68
2022/02/17 08:17:34;;;;;;;16.13;2.50;;;10.50;99.90;;;;;;5012121;28;20033;-67
2022/02/17 08:19:59;;;;;;;18.27;2.97;;;10.50;99.90;;;;;;5011778;28;20083;-68
2022/02/17 08:22:25;;;;;;;23.73;4.40;;;10.50;99.70;;;;;;5029790;28;20363;-67
2022/02/17 08:24:52;;;;;;;18.70;3.20;;;10.50;99.90;;;;;;5029530;28;20033;-68
2022/02/17 08:27:18;;;;;;;18.97;3.13;;;10.50;99.90;;;;;;5029882;28;20026;-66
2022/02/17 08:29:46;;;;;;;15.23;3.27;;;10.40;99.90;;;;;;5029427;28;20036;-67
2022/02/17 08:32:12;;;;;;;20.73;3.07;;;10.30;99.90;;;;;;5012764;28;20025;-67
2022/02/17 08:34:38;;;;;;;24.13;3.53;;;10.30;99.90;;;;;;5029802;28;20036;-67
2022/02/17 08:37:04;;;;;;;20.17;3.60;;;10.30;99.90;;;;;;5029477;28;20505;-67
2022/02/17 08:39:30;;;;;;;22.77;3.83;;;10.40;99.90;;;;;;5028938;28;20040;-66
2022/02/17 08:41:56;;;;;;;23.40;4.77;;;10.40;99.90;;;;;;5029687;28;20029;-67
2022/02/17 08:44:22;;;;;;;18.63;4.03;;;10.40;99.90;;;;;;5029635;28;20026;-66
2022/02/17 08:46:48;;;;;;;23.70;4.33;;;10.50;99.90;;;;;;5029683;28;20045;-66
2022/02/17 08:49:14;;;;;;;18.53;3.50;;;10.50;99.90;;;;;;5029361;28;20040;-68
2022/02/17 08:51:40;;;;;;;16.87;2.93;;;10.50;99.70;;;;;;5029899;28;20033;-68
2022/02/17 08:54:07;;;;;;;15.17;2.73;;;10.50;98.90;;;;;;5011069;28;20040;-68
2022/02/17 08:56:33;;;;;;;12.97;2.73;;;10.40;98.50;;;;;;5029731;28;20041;-66
2022/02/17 08:59:00;;;;;;;20.57;2.67;;;10.40;99.00;;;;;;5011659;28;20041;-67
2022/02/17 09:01:26;;;;;;;15.13;2.40;;;10.50;98.80;;;;;;5029537;28;20025;-68
2022/02/17 09:03:52;;;;;;;13.07;2.50;;;10.50;99.00;;;;;;5028653;28;20036;-67
2022/02/17 09:06:18;;;;;;;15.13;2.80;;;10.50;99.60;;;;;;5029343;28;20026;-66
2022/02/17 09:08:45;;;;;;;21.73;3.63;;;10.50;99.90;;;;;;5028845;28;20030;-67
2022/02/17 09:11:12;;;;;;;15.00;2.80;;;10.50;99.90;;;;;;5029583;28;20034;-67
2022/02/17 09:13:38;;;;;;;20.87;3.50;;;10.50;99.90;;;;;;5032549;28;20041;-68
2022/02/17 09:16:04;;;;;;;21.10;3.40;;;10.50;99.90;;;;;;5033298;28;20494;-66
2022/02/17 09:18:31;;;;;;;23.80;3.97;;;10.50;99.90;;;;;;5032684;28;20115;-65
2022/02/17 09:20:58;;;;;;;18.77;3.87;;;10.50;99.90;;;;;;5032633;28;20366;-67
2022/02/17 09:23:27;;;;;;;14.37;2.87;;;10.60;99.70;;;;;;5031248;28;20025;-67
2022/02/17 09:25:53;;;;;;;16.30;3.28;;;10.60;99.90;;;;;;5031869;28;20033;-68
2022/02/17 09:28:19;;;;;;;12.87;2.70;;;10.70;99.70;;;;;;5032053;28;20436;-68
2022/02/17 09:30:45;;;;;;;17.17;2.50;;;10.70;98.40;;;;;;5032315;28;20041;-69
2022/02/17 09:33:12;;;;;;;16.10;2.47;;;10.50;96.90;;;;;;5032181;28;20025;-69
2022/02/17 09:35:38;;;;;;;12.13;2.00;;;10.50;97.00;;;;;;5032246;28;20037;-68
2022/02/17 09:38:04;;;;;;;16.40;2.40;;;10.50;97.20;;;;;;4998076;28;20036;-69
2022/02/17 09:40:30;;;;;;;12.23;2.40;;;10.50;97.50;;;;;;5031638;28;20030;-68
2022/02/17 09:42:56;;;;;;;16.70;3.00;;;10.50;97.60;;;;;;5014286;28;20037;-68
2022/02/17 09:45:25;;;;;;;16.73;2.90;;;10.50;98.00;;;;;;5032276;28;20041;-68
2022/02/17 09:47:51;;;;;;;13.00;3.53;;;10.50;98.40;;;;;;5032266;28;20029;-68
2022/02/17 09:50:17;;;;;;;17.83;3.00;;;10.60;98.30;;;;;;5032207;28;20034;-68
2022/02/17 09:52:43;;;;;;;14.60;2.40;;;10.70;98.00;;;;;;5031852;28;20416;-67
2022/02/17 09:55:12;;;;;;;16.80;3.50;;;10.70;98.30;;;;;;5031464;28;20105;-68
2022/02/17 09:57:39;;;;;;;14.63;2.33;;;10.80;98.40;;;;;;5032422;28;20087;-69
2022/02/17 10:00:07;;;;;;;13.00;2.77;;;10.90;98.70;;;;;;5032112;28;20037;-69
2022/02/17 10:02:38;;;;;;;13.40;2.70;;;10.80;98.00;;;;;;5031994;28;20033;-70
2022/02/17 10:05:06;;;;;;;11.27;1.90;;;10.80;97.90;;;;;;5031825;28;20033;-71
2022/02/17 10:07:37;;;;;;;16.67;2.65;;;10.80;97.70;;;;;;5031544;28;20088;-71
2022/02/17 10:10:08;;;;;;;12.93;2.23;;;10.80;96.30;;;;;;5031366;28;20151;-71
2022/02/17 10:12:59;;;;;;;13.87;2.47;;;10.80;96.30;;;;;;5031574;28;20026;-69
2022/02/17 10:15:32;;;;;;;13.97;2.50;;;10.90;95.90;;;;;;5014285;28;20042;-67
2022/02/17 10:18:09;;;;;;;11.27;2.23;;;11.00;98.80;;;;;;5032294;28;20029;-68
2022/02/17 10:21:13;;;;;;;12.20;2.53;;;11.00;96.40;;;;;;5031937;28;20091;-72
2022/02/17 10:23:46;;;;;;;13.10;1.90;;;10.90;96.60;;;;;;4950097;28;20039;-72
2022/02/17 10:26:14;;;;;;;12.37;1.90;;;10.90;96.00;;;;;;5002095;28;20050;-72
2022/02/17 10:28:42;;;;;;;11.87;1.80;;;10.90;95.70;;;;;;4994294;28;20034;-68
2022/02/17 10:31:24;;;;;;;12.13;2.30;;;10.80;95.50;;;;;;5012102;28;20033;-70
2022/02/17 10:33:54;;;;;;;11.47;2.40;;;10.70;94.60;;;;;;5011859;28;20096;-69
2022/02/17 10:36:40;;;;;;;9.13;2.27;;;10.80;94.50;;;;;;5011086;28;20344;-71
2022/02/17 10:39:12;;;;;;;14.23;2.00;;;10.80;93.70;;;;;;5011091;28;20560;-76
2022/02/17 10:41:53;;;;;;;9.60;2.07;;;10.80;93.80;;;;;;4994221;28;20038;-72
2022/02/17 10:44:29;;;;;;;10.83;2.27;;;10.80;94.10;;;;;;5011359;28;20423;-72
2022/02/17 10:46:55;;;;;;;11.13;2.93;;;10.80;93.90;;;;;;4993537;28;20116;-71
2022/02/17 10:49:22;;;;;;;12.20;2.30;;;10.80;94.50;;;;;;5010093;28;20107;-71
2022/02/17 10:51:50;;;;;;;12.70;2.43;;;10.80;95.00;;;;;;5011236;28;20076;-68
2022/02/17 10:54:24;;;;;;;10.93;2.38;;;10.80;93.40;;;;;;5010489;28;20049;-68
2022/02/17 10:56:51;;;;;;;10.57;2.80;;;10.80;93.70;;;;;;5011147;28;20044;-67
2022/02/17 11:02:04;;;;;;;11.97;2.27;;;10.70;92.70;;;;;;5030752;28;20124;-68
2022/02/17 11:04:31;;;;;;;13.30;3.33;;;10.80;92.90;;;;;;5030038;28;20037;-67
2022/02/17 11:06:59;;;;;;;10.33;2.00;;;10.90;92.00;;;;;;5030443;28;20097;-69
2022/02/17 11:09:25;;;;;;;13.03;2.43;;;11.00;91.70;;;;;;5029517;28;20091;-67
2022/02/17 11:11:53;;;;;;;12.47;2.40;;;11.00;91.30;;;;;;5030680;28;20065;-67
2022/02/17 11:14:39;;;;;;;9.20;2.20;;;11.00;91.30;;;;;;5029544;28;20504;-69
2022/02/17 11:17:08;;;;;;;11.23;2.50;;;11.00;91.60;;;;;;5012693;28;20045;-70
2022/02/17 11:19:35;;;;;;;9.30;2.70;;;11.00;91.40;;;;;;5012370;28;20041;-71
2022/02/17 11:22:04;;;;;;;13.37;2.70;;;11.00;91.80;;;;;;5030428;28;20065;-69
2022/02/17 11:25:05;;;;;;;12.65;2.67;;;11.00;90.90;;;;;;5029647;28;20025;-66
2022/02/17 11:27:31;;;;;;;14.50;3.20;;;10.80;91.50;;;;;;4986637;28;20041;-69
2022/02/17 11:30:27;;;;;;;13.97;2.57;;;10.80;92.20;;;;;;5029816;28;20845;-70
2022/02/17 11:33:28;;;;;;;15.00;2.67;;;10.80;92.30;;;;;;5031794;28;20499;-68
2022/02/17 11:36:36;;;;;;;14.20;2.00;;;10.80;93.20;;;;;;4997356;28;20191;-70
2022/02/17 11:39:10;;;;;;;13.10;1.90;;;10.80;91.60;;;;;;5013866;28;20051;-69
2022/02/17 11:41:38;;;;;;;11.07;2.10;;;10.80;91.40;;;;;;5030631;28;20116;-68
2022/02/17 11:44:21;;;;;;;9.30;1.80;;;10.90;91.50;;;;;;5011740;28;20032;-68
2022/02/17 11:46:55;;;;;;;12.93;2.13;;;10.80;91.20;;;;;;5030637;28;20026;-69
2022/02/17 11:49:45;;;;;;;10.93;2.20;;;10.90;91.20;;;;;;5012699;28;20033;-72
2022/02/17 11:52:13;;;;;;;8.43;1.67;;;10.80;91.20;;;;;;5025450;28;20075;-69
2022/02/17 11:54:42;;;;;;;8.27;1.63;;;10.80;91.20;;;;;;5029772;28;20033;-68
2022/02/17 11:57:34;;;;;;;13.75;2.47;;;10.80;91.60;;;;;;5031291;28;20041;-69
2022/02/17 12:00:18;;;;;;;10.03;1.80;;;10.80;91.90;;;;;;5029563;28;20025;-71
2022/02/17 12:02:45;;;;;;;13.50;2.40;;;10.90;91.90;;;;;;5011975;28;20025;-70
2022/02/17 12:05:15;;;;;;;10.23;2.33;;;11.00;92.10;;;;;;5029496;28;20049;-69
2022/02/17 12:07:41;;;;;;;7.07;1.40;;;11.00;92.60;;;;;;5030409;28;20474;-69
2022/02/17 12:10:33;;;;;;;9.67;1.83;;;11.10;92.00;;;;;;5029417;28;20069;-70
2022/02/17 12:13:09;;;;;;;13.33;2.27;;;11.10;91.80;;;;;;5029718;28;20029;-70
2022/02/17 12:15:42;;;;;;;9.07;2.10;;;11.10;91.50;;;;;;5029075;28;20037;-69
2022/02/17 12:18:08;;;;;;;9.47;1.77;;;11.10;91.70;;;;;;5030071;28;20464;-72
2022/02/17 12:20:34;;;;;;;12.80;1.87;;;11.10;91.90;;;;;;5029774;28;20101;-69
2022/02/17 12:23:07;;;;;;;9.80;2.07;;;11.10;91.70;;;;;;5029326;28;20105;-68
2022/02/17 12:25:35;;;;;;;10.13;2.10;;;11.20;91.10;;;;;;5028525;28;20456;-70
2022/02/17 12:28:06;;;;;;;12.00;2.07;;;11.20;91.10;;;;;;5030119;28;20030;-66
2022/02/17 12:30:46;;;;;;;16.00;2.33;;;11.10;91.50;;;;;;5028586;28;20486;-73
2022/02/17 12:33:24;;;;;;;8.67;1.97;;;11.00;91.50;;;;;;5011290;28;20045;-69
2022/02/17 12:36:09;;;;;;;6.33;1.47;;;11.00;91.50;;;;;;5010842;28;20107;-69
2022/02/17 12:38:35;;;;;;;28.50;7.70;;;11.00;90.50;;;;;;5027986;28;20037;-69
2022/02/17 12:41:06;;;;;;;9.63;1.77;;;11.20;97.70;;;;;;5029395;28;20362;-70
2022/02/17 12:43:35;;;;;;;9.27;1.63;;;11.20;90.70;;;;;;5028522;28;20025;-69
2022/02/17 12:46:08;;;;;;;8.80;1.30;;;11.20;90.40;;;;;;5029334;28;20025;-69
2022/02/17 12:48:39;;;;;;;8.37;1.30;;;11.10;90.70;;;;;;4998714;28;20111;-69
2022/02/17 12:51:05;;;;;;;7.93;1.60;;;11.10;91.20;;;;;;5033195;28;20105;-69
2022/02/17 12:53:50;;;;;;;5.63;1.23;;;11.00;91.00;;;;;;5032623;28;20033;-68
2022/02/17 12:56:28;;;;;;;6.10;1.47;;;11.00;91.00;;;;;;5033022;28;20033;-69